Time;durP1;ratioP1;P1;durP2;ratioP2;P2;SDS_P1;SDS_P2;PMS_P1;PMS_P2;Temp;Humidity;BMP_temperature;BMP_pressure;BME280_temperature;BME280_humidity;BME280_pressure;Samples;Min_cycle;Max_cycle;Signal;HPM_P1;HPM_P2
2022/06/29 05:00:44;;;;;;;8.77;6.40;;;19.50;97.20;;;;;;1724708;28;20574;-69
2022/06/29 05:01:35;;;;;;;6.95;6.45;;;19.60;97.20;;;;;;1727543;28;20210;-69
2022/06/29 05:02:27;;;;;;;6.75;5.88;;;19.60;97.20;;;;;;1727589;28;20207;-69
2022/06/29 05:03:18;;;;;;;6.63;6.03;;;19.60;97.20;;;;;;1727575;28;20204;-69
2022/06/29 05:04:10;;;;;;;6.40;5.90;;;19.70;97.20;;;;;;1727651;28;20660;-69
2022/06/29 05:05:00;;;;;;;5.90;5.50;;;19.60;97.20;;;;;;1727510;28;20204;-69
2022/06/29 05:05:52;;;;;;;6.60;6.10;;;19.70;97.20;;;;;;1727478;28;20755;-69
2022/06/29 05:06:43;;;;;;;6.55;6.05;;;19.70;97.20;;;;;;1727299;28;20663;-68
2022/06/29 05:07:35;;;;;;;6.40;5.90;;;19.70;97.20;;;;;;1727593;28;20599;-69
2022/06/29 05:08:26;;;;;;;6.72;6.07;;;19.70;97.20;;;;;;1727505;28;20218;-69
2022/06/29 05:09:17;;;;;;;6.60;5.97;;;19.70;97.20;;;;;;1727542;28;20239;-70
2022/06/29 05:10:09;;;;;;;6.57;6.10;;;19.70;97.20;;;;;;1727485;28;20200;-69
2022/06/29 05:11:00;;;;;;;6.85;6.25;;;19.80;97.20;;;;;;1727508;28;20252;-69
2022/06/29 05:11:51;;;;;;;6.70;6.20;;;19.70;97.20;;;;;;1727559;28;20211;-69
2022/06/29 05:12:44;;;;;;;6.73;6.27;;;19.80;97.20;;;;;;1727556;28;20239;-69
2022/06/29 05:13:34;;;;;;;7.78;7.18;;;19.80;97.20;;;;;;1727465;28;20204;-69
2022/06/29 05:14:26;;;;;;;7.03;6.40;;;19.80;97.20;;;;;;1727515;28;20291;-68
2022/06/29 05:15:17;;;;;;;7.07;6.38;;;19.80;97.20;;;;;;1727582;28;20787;-68
2022/06/29 05:16:10;;;;;;;6.10;5.50;;;19.70;97.20;;;;;;1727460;28;20605;-69
2022/06/29 05:17:01;;;;;;;6.70;6.10;;;19.80;97.20;;;;;;1727232;28;20668;-71
2022/06/29 05:17:53;;;;;;;6.60;6.10;;;19.80;97.20;;;;;;1727445;28;20638;-69
2022/06/29 05:18:44;;;;;;;6.78;6.28;;;19.80;97.20;;;;;;1727459;28;20212;-69
2022/06/29 05:19:35;;;;;;;6.53;6.03;;;19.80;97.20;;;;;;1727534;28;20279;-69
2022/06/29 05:20:26;;;;;;;6.10;5.70;;;19.80;97.20;;;;;;1727238;28;20224;-69
2022/06/29 05:21:19;;;;;;;6.63;6.23;;;19.70;97.20;;;;;;1727492;28;20288;-69
2022/06/29 05:22:10;;;;;;;6.15;5.65;;;19.70;97.20;;;;;;1727486;28;20450;-69
2022/06/29 05:23:01;;;;;;;7.00;6.50;;;19.80;97.20;;;;;;1727470;28;20192;-70
2022/06/29 05:23:52;;;;;;;6.45;5.93;;;19.80;97.20;;;;;;1727442;28;20204;-69
2022/06/29 05:24:44;;;;;;;6.53;6.03;;;19.80;97.20;;;;;;1727473;28;20307;-70
2022/06/29 05:25:35;;;;;;;6.50;6.00;;;19.80;97.20;;;;;;1727406;28;20527;-70
2022/06/29 05:26:27;;;;;;;7.10;6.40;;;19.70;97.20;;;;;;1727333;28;20340;-69
2022/06/29 05:27:17;;;;;;;6.18;5.68;;;19.70;97.20;;;;;;1727172;28;20207;-69
2022/06/29 05:28:11;;;;;;;7.10;6.50;;;19.70;97.20;;;;;;1727337;28;20706;-69
2022/06/29 05:29:02;;;;;;;7.15;6.45;;;19.70;97.20;;;;;;1727450;28;20291;-69
2022/06/29 05:29:54;;;;;;;6.47;5.97;;;19.70;97.20;;;;;;1727404;28;20208;-69
2022/06/29 05:30:44;;;;;;;5.97;5.50;;;19.70;97.20;;;;;;1727111;28;20346;-70
2022/06/29 05:31:37;;;;;;;6.43;5.80;;;19.60;97.20;;;;;;1727644;28;20200;-69
2022/06/29 05:32:28;;;;;;;7.10;6.60;;;19.60;97.20;;;;;;1727518;28;20204;-69
2022/06/29 05:33:20;;;;;;;7.43;6.83;;;19.70;97.20;;;;;;1727505;28;20231;-69
2022/06/29 05:34:11;;;;;;;7.53;6.90;;;19.70;97.20;;;;;;1727595;28;20806;-69
2022/06/29 05:35:03;;;;;;;7.07;6.47;;;19.70;97.20;;;;;;1726974;28;20346;-69
2022/06/29 05:35:54;;;;;;;6.45;5.95;;;19.70;97.20;;;;;;1727293;28;20200;-69
2022/06/29 05:36:46;;;;;;;6.83;6.33;;;19.70;97.20;;;;;;1726770;28;20287;-69
2022/06/29 05:37:37;;;;;;;6.47;5.75;;;19.70;97.20;;;;;;1727146;28;20201;-69
2022/06/29 05:38:29;;;;;;;6.43;5.93;;;19.80;97.20;;;;;;1726780;28;20219;-68
2022/06/29 05:39:19;;;;;;;7.05;6.47;;;19.80;97.20;;;;;;1727171;28;20664;-72
2022/06/29 05:40:11;;;;;;;7.27;6.77;;;19.80;97.20;;;;;;1726948;28;20625;-72
2022/06/29 05:41:02;;;;;;;7.00;6.50;;;19.80;97.20;;;;;;1727456;28;20209;-72
2022/06/29 05:41:54;;;;;;;6.33;5.70;;;19.80;97.20;;;;;;1727481;28;20200;-73
2022/06/29 05:42:45;;;;;;;7.57;6.95;;;19.80;97.20;;;;;;1727403;28;20439;-72
2022/06/29 05:43:36;;;;;;;7.20;6.60;;;19.80;97.20;;;;;;1727400;28;20291;-73
2022/06/29 05:44:27;;;;;;;6.63;6.13;;;19.80;97.20;;;;;;1727385;28;20935;-73
2022/06/29 05:45:19;;;;;;;6.47;5.97;;;19.90;97.20;;;;;;1726618;28;20577;-72
2022/06/29 05:46:11;;;;;;;6.25;5.75;;;19.90;97.20;;;;;;1725281;28;20219;-72
2022/06/29 05:47:03;;;;;;;7.05;6.43;;;19.90;97.20;;;;;;1724840;28;20279;-73
2022/06/29 05:47:55;;;;;;;6.70;6.20;;;19.90;97.20;;;;;;1726037;28;20472;-73
2022/06/29 05:48:46;;;;;;;7.55;7.05;;;20.00;97.20;;;;;;1725180;28;20588;-72
2022/06/29 05:49:38;;;;;;;8.20;6.47;;;20.00;97.20;;;;;;1725635;28;20920;-74
2022/06/29 05:50:29;;;;;;;6.97;6.47;;;20.00;97.20;;;;;;1725286;28;20664;-74
2022/06/29 05:51:20;;;;;;;8.10;7.10;;;20.00;97.20;;;;;;1725391;28;20624;-73
2022/06/29 05:52:11;;;;;;;6.75;6.15;;;20.10;97.20;;;;;;1725368;28;20201;-73
2022/06/29 05:53:03;;;;;;;7.70;7.20;;;20.10;97.20;;;;;;1726391;28;20280;-74
2022/06/29 05:53:54;;;;;;;7.10;6.60;;;20.10;97.20;;;;;;1725558;28;20208;-72
2022/06/29 05:54:45;;;;;;;6.93;6.50;;;20.20;97.20;;;;;;1725304;28;20291;-72
2022/06/29 05:55:36;;;;;;;6.85;6.35;;;20.20;97.20;;;;;;1725597;28;20451;-74
2022/06/29 05:56:28;;;;;;;7.07;6.50;;;20.20;97.20;;;;;;1725533;28;20280;-72
2022/06/29 05:57:19;;;;;;;7.93;6.72;;;20.30;97.20;;;;;;1725202;28;20569;-72
2022/06/29 05:58:15;;;;;;;7.57;7.05;;;20.30;97.20;;;;;;1725531;28;21043;-72
2022/06/29 05:59:06;;;;;;;7.28;6.78;;;20.30;97.20;;;;;;1726649;28;20203;-74
2022/06/29 05:59:58;;;;;;;7.50;6.90;;;20.30;97.20;;;;;;1727003;28;20202;-72
2022/06/29 06:00:49;;;;;;;7.00;6.40;;;20.30;97.20;;;;;;1726474;28;20482;-73
2022/06/29 06:01:40;;;;;;;7.97;7.38;;;20.30;97.20;;;;;;1726850;28;20631;-72
2022/06/29 06:02:33;;;;;;;7.55;6.95;;;20.40;97.20;;;;;;1727181;28;20579;-75
2022/06/29 06:03:24;;;;;;;6.93;6.30;;;20.40;97.20;;;;;;1726409;28;20209;-73
2022/06/29 06:04:15;;;;;;;7.28;6.68;;;20.40;97.20;;;;;;1726825;28;20200;-74
2022/06/29 06:05:08;;;;;;;7.70;7.07;;;20.40;97.20;;;;;;1726607;28;20703;-73
2022/06/29 06:05:59;;;;;;;6.60;6.20;;;20.40;97.20;;;;;;1726358;28;20196;-72
2022/06/29 06:06:51;;;;;;;7.00;6.50;;;20.50;97.20;;;;;;1726379;28;20287;-73
2022/06/29 06:07:42;;;;;;;7.38;6.70;;;20.50;97.20;;;;;;1726680;28;20702;-73
2022/06/29 06:08:33;;;;;;;7.30;6.53;;;20.50;97.20;;;;;;1726482;28;21863;-73
2022/06/29 06:09:27;;;;;;;7.85;7.32;;;20.50;97.20;;;;;;1727153;28;20576;-73
2022/06/29 06:10:18;;;;;;;6.65;6.15;;;20.50;97.20;;;;;;1726646;28;20224;-73
2022/06/29 06:11:09;;;;;;;6.50;6.00;;;20.50;97.20;;;;;;1726674;28;20208;-73
2022/06/29 06:12:01;;;;;;;7.70;6.30;;;20.60;97.20;;;;;;1726159;28;20271;-72
2022/06/29 06:12:52;;;;;;;6.22;5.72;;;20.60;97.20;;;;;;1726678;28;20209;-72
2022/06/29 06:13:43;;;;;;;6.20;5.80;;;20.60;97.20;;;;;;1726178;28;20200;-72
2022/06/29 06:14:34;;;;;;;6.88;6.35;;;20.60;97.20;;;;;;1726440;28;20200;-73
2022/06/29 06:15:26;;;;;;;6.33;5.83;;;20.60;97.20;;;;;;1727472;28;20685;-71
2022/06/29 06:16:17;;;;;;;7.80;7.10;;;20.70;97.20;;;;;;1726839;28;20223;-72
2022/06/29 06:17:08;;;;;;;7.63;6.93;;;20.70;97.20;;;;;;1726064;28;20299;-73
2022/06/29 06:18:01;;;;;;;7.68;7.05;;;20.70;97.20;;;;;;1726639;28;20215;-73
2022/06/29 06:18:52;;;;;;;6.25;5.85;;;20.70;97.20;;;;;;1726631;28;20200;-72
2022/06/29 06:19:43;;;;;;;7.15;6.65;;;20.70;97.20;;;;;;1726358;28;20212;-73
2022/06/29 06:20:35;;;;;;;6.83;6.17;;;20.70;97.20;;;;;;1726249;28;20307;-72
2022/06/29 06:21:26;;;;;;;6.50;5.93;;;20.70;97.20;;;;;;1726532;28;20585;-71
2022/06/29 06:22:17;;;;;;;7.07;6.57;;;20.70;97.20;;;;;;1727365;28;20283;-73
2022/06/29 06:23:08;;;;;;;7.25;6.55;;;20.70;97.20;;;;;;1726438;28;20621;-73
2022/06/29 06:24:00;;;;;;;6.67;6.17;;;20.80;97.20;;;;;;1726578;28;20625;-72
2022/06/29 06:24:51;;;;;;;9.68;6.82;;;20.80;97.20;;;;;;1726447;28;20279;-73
2022/06/29 06:25:43;;;;;;;7.23;6.30;;;20.80;97.20;;;;;;1726640;28;20280;-72
2022/06/29 06:26:33;;;;;;;6.05;5.55;;;20.80;97.20;;;;;;1726524;28;20443;-73
2022/06/29 06:27:25;;;;;;;7.00;6.40;;;20.80;97.20;;;;;;1726657;28;20224;-74
2022/06/29 06:28:17;;;;;;;7.13;6.55;;;20.90;97.20;;;;;;1726631;28;21044;-73
2022/06/29 06:29:08;;;;;;;6.13;5.72;;;20.90;97.20;;;;;;1727030;28;20276;-73
2022/06/29 06:29:59;;;;;;;6.35;5.93;;;20.90;97.20;;;;;;1726819;28;20200;-72
2022/06/29 06:30:51;;;;;;;6.63;5.70;;;21.00;97.20;;;;;;1727151;28;20304;-74
2022/06/29 06:31:42;;;;;;;6.55;6.05;;;21.00;97.20;;;;;;1726721;28;20215;-73
2022/06/29 06:32:33;;;;;;;12.13;7.23;;;21.00;97.20;;;;;;1726271;28;20280;-73
2022/06/29 06:33:26;;;;;;;6.10;5.60;;;21.00;97.20;;;;;;1726515;28;20208;-72
2022/06/29 06:34:17;;;;;;;6.60;6.10;;;21.10;97.20;;;;;;1726620;28;20585;-75
2022/06/29 06:35:09;;;;;;;7.03;6.53;;;21.10;97.20;;;;;;1727252;28;20193;-72
2022/06/29 06:36:00;;;;;;;7.55;6.90;;;21.10;97.20;;;;;;1726380;28;20192;-72
2022/06/29 06:36:51;;;;;;;6.80;6.30;;;21.10;97.20;;;;;;1726054;28;20208;-73
2022/06/29 06:37:43;;;;;;;7.37;6.73;;;21.10;97.20;;;;;;1726994;28;20715;-72
2022/06/29 06:38:34;;;;;;;6.95;6.35;;;21.20;97.20;;;;;;1726498;28;20265;-73
2022/06/29 06:39:26;;;;;;;6.93;6.37;;;21.20;97.20;;;;;;1726632;28;20262;-73
2022/06/29 06:41:26;;;;;;;7.03;6.38;;;21.20;97.20;;;;;;1726666;28;20682;-72
2022/06/29 06:42:17;;;;;;;6.53;5.90;;;21.30;97.20;;;;;;1726482;28;20679;-72
2022/06/29 06:43:09;;;;;;;7.40;6.80;;;21.30;97.20;;;;;;1726727;28;20251;-72
2022/06/29 06:44:00;;;;;;;7.30;6.80;;;21.30;97.20;;;;;;1727114;28;20196;-73
2022/06/29 06:44:52;;;;;;;7.43;6.82;;;21.30;97.20;;;;;;1726291;28;20196;-72
2022/06/29 06:45:43;;;;;;;6.65;6.15;;;21.40;97.20;;;;;;1726475;28;20209;-73
2022/06/29 06:46:34;;;;;;;7.57;6.97;;;21.40;97.20;;;;;;1725979;28;20283;-73
2022/06/29 06:47:25;;;;;;;7.03;6.53;;;21.40;97.20;;;;;;1726253;28;20212;-73
2022/06/29 06:48:17;;;;;;;7.00;6.50;;;21.40;97.20;;;;;;1726201;28;20296;-73
2022/06/29 06:49:09;;;;;;;6.15;5.75;;;21.40;97.20;;;;;;1726385;28;20574;-72
2022/06/29 06:50:01;;;;;;;6.90;6.40;;;21.50;97.20;;;;;;1726721;28;20283;-72
2022/06/29 06:50:51;;;;;;;7.47;6.88;;;21.50;97.20;;;;;;1726502;28;20267;-73
2022/06/29 06:51:43;;;;;;;7.20;6.60;;;21.50;97.20;;;;;;1726469;28;20236;-73
2022/06/29 06:52:34;;;;;;;7.05;6.45;;;21.60;97.20;;;;;;1726308;28;20208;-72
2022/06/29 06:53:27;;;;;;;6.40;5.90;;;21.60;97.20;;;;;;1726396;28;20288;-72
2022/06/29 06:54:17;;;;;;;6.15;5.65;;;21.60;97.20;;;;;;1726021;28;20357;-73
2022/06/29 06:55:10;;;;;;;6.50;6.00;;;21.60;97.20;;;;;;1726533;28;20201;-72
2022/06/29 06:56:00;;;;;;;7.45;6.88;;;21.70;97.20;;;;;;1726343;28;20196;-72
2022/06/29 06:56:52;;;;;;;6.80;6.30;;;21.70;97.20;;;;;;1726755;28;20507;-73
2022/06/29 06:57:43;;;;;;;7.55;7.05;;;21.70;97.20;;;;;;1725857;28;20211;-74
2022/06/29 06:58:36;;;;;;;6.93;6.43;;;21.70;97.20;;;;;;1726562;28;20267;-72
2022/06/29 06:59:27;;;;;;;7.25;6.30;;;21.70;97.20;;;;;;1726497;28;20342;-72
2022/06/29 07:00:19;;;;;;;6.80;6.20;;;21.70;97.20;;;;;;1727005;28;20208;-72
2022/06/29 07:01:10;;;;;;;7.15;6.65;;;21.70;97.20;;;;;;1726330;28;20223;-73
2022/06/29 07:02:02;;;;;;;7.00;6.40;;;21.70;97.20;;;;;;1726082;28;20537;-73
2022/06/29 07:02:53;;;;;;;6.32;5.82;;;21.70;97.20;;;;;;1726269;28;20254;-74
2022/06/29 07:03:45;;;;;;;7.10;6.60;;;21.70;97.20;;;;;;1726637;28;20204;-74
2022/06/29 07:04:37;;;;;;;6.97;6.47;;;21.70;97.20;;;;;;1726571;28;20664;-73
2022/06/29 07:05:29;;;;;;;6.85;6.35;;;21.80;97.20;;;;;;1726182;28;20200;-74
2022/06/29 07:06:20;;;;;;;6.65;6.15;;;21.80;97.20;;;;;;1726266;28;20224;-73
2022/06/29 07:07:11;;;;;;;6.43;6.00;;;21.80;97.20;;;;;;1726091;28;20664;-73
2022/06/29 07:08:02;;;;;;;7.03;6.43;;;21.90;97.20;;;;;;1726596;28;20451;-72
2022/06/29 07:08:54;;;;;;;6.65;6.15;;;21.90;97.20;;;;;;1726361;28;20216;-72
2022/06/29 07:09:45;;;;;;;7.00;6.40;;;22.00;97.20;;;;;;1726587;28;20721;-73
2022/06/29 07:10:37;;;;;;;6.80;6.30;;;22.00;97.20;;;;;;1726652;28;20779;-72
2022/06/29 07:11:28;;;;;;;6.50;5.95;;;22.00;97.20;;;;;;1726428;28;20197;-73
2022/06/29 07:12:19;;;;;;;6.43;5.93;;;22.10;97.20;;;;;;1726312;28;20279;-72
2022/06/29 07:13:10;;;;;;;7.35;6.65;;;22.10;97.20;;;;;;1726343;28;20652;-72
2022/06/29 07:14:02;;;;;;;6.97;6.37;;;22.10;97.20;;;;;;1726413;28;20623;-72
2022/06/29 07:14:53;;;;;;;6.72;6.10;;;22.20;97.20;;;;;;1726204;28;20201;-72
2022/06/29 07:15:44;;;;;;;6.37;5.77;;;22.20;97.20;;;;;;1726206;28;20275;-72
2022/06/29 07:16:35;;;;;;;6.97;5.53;;;22.30;97.20;;;;;;1726729;28;20671;-72
2022/06/29 07:17:27;;;;;;;5.40;5.03;;;22.30;97.20;;;;;;1725979;28;20723;-74
2022/06/29 07:18:18;;;;;;;6.78;6.07;;;22.40;97.20;;;;;;1726389;28;20220;-74
2022/06/29 07:19:09;;;;;;;6.47;5.97;;;22.40;97.20;;;;;;1726476;28;20192;-74
2022/06/29 07:20:02;;;;;;;6.63;6.13;;;22.50;97.20;;;;;;1725989;28;20200;-73
2022/06/29 07:20:53;;;;;;;6.40;5.90;;;22.50;97.20;;;;;;1725996;28;20289;-73
2022/06/29 07:21:45;;;;;;;5.95;5.55;;;22.50;97.20;;;;;;1726321;28;20212;-73
2022/06/29 07:22:37;;;;;;;6.50;6.00;;;22.50;97.20;;;;;;1726271;28;20224;-73
2022/06/29 07:23:28;;;;;;;6.70;6.10;;;22.50;97.20;;;;;;1726804;28;20663;-73
2022/06/29 07:24:20;;;;;;;6.43;6.03;;;22.60;97.20;;;;;;1726491;28;20911;-73
2022/06/29 07:25:10;;;;;;;7.15;6.55;;;22.60;97.20;;;;;;1726045;28;20197;-72
2022/06/29 07:26:02;;;;;;;6.93;6.43;;;22.60;97.20;;;;;;1725771;28;20683;-73
2022/06/29 07:26:53;;;;;;;6.38;5.85;;;22.60;97.20;;;;;;1725982;28;20193;-72
2022/06/29 07:27:45;;;;;;;6.43;5.90;;;22.60;97.20;;;;;;1726092;28;20204;-72
2022/06/29 07:28:39;;;;;;;6.60;6.10;;;22.60;97.20;;;;;;1726311;28;20451;-74
2022/06/29 07:29:30;;;;;;;6.10;5.70;;;22.60;97.20;;;;;;1726183;28;20283;-73
2022/06/29 07:30:21;;;;;;;6.60;6.10;;;22.60;97.20;;;;;;1726045;28;20193;-73
2022/06/29 07:31:13;;;;;;;6.40;5.90;;;22.60;97.20;;;;;;1726199;28;20272;-71
2022/06/29 07:32:05;;;;;;;7.25;6.55;;;22.60;97.20;;;;;;1726307;28;20931;-72
2022/06/29 07:32:56;;;;;;;6.47;5.97;;;22.60;97.20;;;;;;1725936;28;20197;-71
2022/06/29 07:33:47;;;;;;;6.20;5.80;;;22.60;97.20;;;;;;1725707;28;20201;-72
2022/06/29 07:34:39;;;;;;;6.87;6.27;;;22.60;97.20;;;;;;1726189;28;20292;-72
2022/06/29 07:35:31;;;;;;;6.00;5.60;;;22.70;97.20;;;;;;1726051;28;20683;-72
2022/06/29 07:36:23;;;;;;;6.07;5.68;;;22.70;97.20;;;;;;1726804;28;20200;-73
2022/06/29 07:37:15;;;;;;;6.70;6.22;;;22.70;97.20;;;;;;1725825;28;20196;-72
2022/06/29 07:38:09;;;;;;;6.70;6.10;;;22.70;97.20;;;;;;1726010;28;20841;-71
2022/06/29 07:39:00;;;;;;;7.10;6.40;;;22.80;97.20;;;;;;1726491;28;20213;-72
2022/06/29 07:39:51;;;;;;;5.93;5.43;;;22.80;97.20;;;;;;1726054;28;20192;-73
2022/06/29 07:40:42;;;;;;;6.68;6.07;;;22.80;97.20;;;;;;1725907;28;20220;-71
2022/06/29 07:41:36;;;;;;;7.50;6.90;;;22.90;97.20;;;;;;1725860;28;20287;-71
2022/06/29 07:42:26;;;;;;;6.55;6.15;;;22.90;97.20;;;;;;1725999;28;20889;-72
2022/06/29 07:43:18;;;;;;;7.30;6.80;;;22.90;97.20;;;;;;1726694;28;20192;-72
2022/06/29 07:44:09;;;;;;;6.70;6.20;;;22.80;97.20;;;;;;1725926;28;20205;-72
2022/06/29 07:45:01;;;;;;;7.60;7.00;;;22.90;97.20;;;;;;1726136;28;20196;-72
2022/06/29 07:45:51;;;;;;;6.40;6.00;;;22.90;97.20;;;;;;1726619;28;20201;-72
2022/06/29 07:46:43;;;;;;;12.43;6.53;;;22.90;97.20;;;;;;1725485;28;20210;-71
2022/06/29 07:47:34;;;;;;;6.47;5.93;;;22.90;97.20;;;;;;1725964;28;20258;-71
2022/06/29 07:48:26;;;;;;;7.10;6.60;;;22.90;97.20;;;;;;1725729;28;20200;-72
2022/06/29 07:49:17;;;;;;;6.30;5.75;;;22.90;97.20;;;;;;1726459;28;20475;-72
2022/06/29 07:50:12;;;;;;;7.60;7.00;;;22.90;97.20;;;;;;1725702;28;20226;-73
2022/06/29 07:51:05;;;;;;;7.45;6.65;;;22.90;97.20;;;;;;1726075;28;20279;-72
2022/06/29 07:51:55;;;;;;;6.00;5.50;;;22.90;97.20;;;;;;1725763;28;20211;-71
2022/06/29 07:52:47;;;;;;;6.30;5.80;;;23.00;97.20;;;;;;1726037;28;20280;-71
2022/06/29 07:53:38;;;;;;;7.10;6.50;;;23.00;97.20;;;;;;1725954;28;20196;-72
2022/06/29 07:54:30;;;;;;;6.80;6.30;;;23.00;97.20;;;;;;1726005;28;20200;-71
2022/06/29 07:55:21;;;;;;;6.35;5.95;;;23.00;97.20;;;;;;1725803;28;20204;-71
2022/06/29 07:56:12;;;;;;;6.57;6.07;;;23.00;97.20;;;;;;1726518;28;20304;-72
2022/06/29 07:57:04;;;;;;;6.85;6.35;;;23.00;97.20;;;;;;1725419;28;20942;-72
2022/06/29 07:57:55;;;;;;;5.65;5.22;;;23.10;97.20;;;;;;1725803;28;20247;-72
2022/06/29 07:58:46;;;;;;;6.40;6.00;;;23.10;97.20;;;;;;1725462;28;20205;-72
2022/06/29 07:59:38;;;;;;;7.47;6.80;;;23.10;97.20;;;;;;1726077;28;20292;-73
2022/06/29 08:00:29;;;;;;;7.00;6.40;;;23.20;97.20;;;;;;1725561;28;20454;-72
2022/06/29 08:01:21;;;;;;;6.83;6.23;;;23.20;97.20;;;;;;1725956;28;20425;-72
2022/06/29 08:02:12;;;;;;;8.50;6.28;;;23.20;97.20;;;;;;1725870;28;20935;-72
2022/06/29 08:03:03;;;;;;;6.27;5.77;;;23.20;97.20;;;;;;1726409;28;20715;-72
2022/06/29 08:03:55;;;;;;;6.05;5.60;;;23.30;97.20;;;;;;1725978;28;20208;-71
2022/06/29 08:04:46;;;;;;;6.50;6.00;;;23.30;97.20;;;;;;1725970;28;20204;-73
2022/06/29 08:05:37;;;;;;;6.00;5.60;;;23.30;97.20;;;;;;1725863;28;20215;-71
2022/06/29 08:06:30;;;;;;;6.43;5.93;;;23.30;97.20;;;;;;1725602;28;20605;-72
2022/06/29 08:07:21;;;;;;;6.10;5.70;;;23.40;97.20;;;;;;1725399;28;20196;-72
2022/06/29 08:08:13;;;;;;;9.87;6.37;;;23.40;97.20;;;;;;1725530;28;22185;-71
2022/06/29 08:09:05;;;;;;;5.97;5.57;;;23.50;97.20;;;;;;1726443;28;20200;-71
2022/06/29 08:09:57;;;;;;;9.73;6.28;;;23.50;97.20;;;;;;1725613;28;20567;-73
2022/06/29 08:10:48;;;;;;;5.70;5.30;;;23.50;97.20;;;;;;1725732;28;20220;-72
2022/06/29 08:11:40;;;;;;;7.47;5.60;;;23.50;97.20;;;;;;1725775;28;20231;-72
2022/06/29 08:12:31;;;;;;;5.57;5.18;;;23.50;97.20;;;;;;1725947;28;20452;-72
2022/06/29 08:13:22;;;;;;;5.83;5.43;;;23.50;97.20;;;;;;1726339;28;20285;-72
2022/06/29 08:14:13;;;;;;;6.30;5.80;;;23.50;97.20;;;;;;1725931;28;20447;-72
2022/06/29 08:15:06;;;;;;;7.63;5.53;;;23.50;97.20;;;;;;1725867;28;20291;-72
2022/06/29 08:15:57;;;;;;;5.95;5.35;;;23.60;97.20;;;;;;1726206;28;20567;-71
2022/06/29 08:16:48;;;;;;;9.40;6.37;;;23.60;97.20;;;;;;1725556;28;20623;-72
2022/06/29 08:17:39;;;;;;;5.85;5.45;;;23.60;97.20;;;;;;1725842;28;20216;-72
2022/06/29 08:18:31;;;;;;;5.90;5.30;;;23.60;97.20;;;;;;1725868;28;20491;-72
2022/06/29 08:19:22;;;;;;;5.72;5.22;;;23.70;97.20;;;;;;1725850;28;20432;-72
2022/06/29 08:20:13;;;;;;;7.63;5.43;;;23.70;97.20;;;;;;1725820;28;20299;-72
2022/06/29 08:21:04;;;;;;;5.80;5.40;;;23.70;97.20;;;;;;1725262;28;20204;-72
2022/06/29 08:21:57;;;;;;;6.43;5.83;;;23.80;97.20;;;;;;1726160;28;20287;-71
2022/06/29 08:22:48;;;;;;;6.72;6.10;;;23.80;97.20;;;;;;1726089;28;20447;-72
2022/06/29 08:23:40;;;;;;;6.20;5.63;;;23.80;97.20;;;;;;1725302;28;20276;-71
2022/06/29 08:24:31;;;;;;;6.80;6.20;;;23.90;97.20;;;;;;1725972;28;21532;-71
2022/06/29 08:25:22;;;;;;;6.53;6.03;;;23.90;97.20;;;;;;1725322;28;20279;-71
2022/06/29 08:26:13;;;;;;;7.57;6.07;;;24.00;97.20;;;;;;1725765;28;20205;-71
2022/06/29 08:27:05;;;;;;;5.77;5.37;;;24.00;97.20;;;;;;1725623;28;20280;-73
2022/06/29 08:27:56;;;;;;;6.75;6.25;;;24.00;97.20;;;;;;1725740;28;20272;-71
2022/06/29 08:28:48;;;;;;;6.43;5.97;;;24.10;97.20;;;;;;1726936;28;20279;-72
2022/06/29 08:29:38;;;;;;;7.10;6.50;;;24.10;97.20;;;;;;1726067;28;20597;-72
2022/06/29 08:30:30;;;;;;;7.60;6.90;;;24.10;97.20;;;;;;1726279;28;20614;-71
2022/06/29 08:31:21;;;;;;;7.68;7.05;;;24.10;97.20;;;;;;1725646;28;20200;-71
2022/06/29 08:32:13;;;;;;;7.23;6.53;;;24.10;97.20;;;;;;1725836;28;20192;-71
2022/06/29 08:33:04;;;;;;;7.40;6.80;;;24.10;97.20;;;;;;1725779;28;20196;-71
2022/06/29 08:33:56;;;;;;;6.93;6.43;;;24.10;97.20;;;;;;1725947;28;20216;-71
2022/06/29 08:34:47;;;;;;;7.53;6.93;;;24.00;97.20;;;;;;1725271;28;20792;-71
2022/06/29 08:35:39;;;;;;;6.73;6.23;;;24.00;97.20;;;;;;1726080;28;20275;-71
2022/06/29 08:36:30;;;;;;;6.40;5.90;;;24.00;97.20;;;;;;1725784;28;20201;-71
2022/06/29 08:37:23;;;;;;;6.47;5.90;;;24.00;97.20;;;;;;1725564;28;20199;-72
2022/06/29 08:38:14;;;;;;;6.45;5.95;;;24.00;97.20;;;;;;1725233;28;20207;-71
2022/06/29 08:39:06;;;;;;;6.53;6.10;;;24.00;97.20;;;;;;1725900;28;20207;-71
2022/06/29 08:39:56;;;;;;;6.88;6.20;;;23.90;97.20;;;;;;1725704;28;20451;-73
2022/06/29 08:40:49;;;;;;;5.90;5.40;;;24.00;97.20;;;;;;1725876;28;20312;-71
2022/06/29 08:41:40;;;;;;;6.30;5.80;;;24.00;97.20;;;;;;1725930;28;20228;-71
2022/06/29 08:42:33;;;;;;;6.60;6.00;;;24.00;97.20;;;;;;1725953;28;20192;-71
2022/06/29 08:43:25;;;;;;;6.40;5.85;;;24.00;97.20;;;;;;1725721;28;20196;-71
2022/06/29 08:44:18;;;;;;;7.10;6.50;;;24.00;97.20;;;;;;1725598;28;20216;-71
2022/06/29 08:45:12;;;;;;;7.03;6.43;;;24.10;97.20;;;;;;1725506;28;20434;-71
2022/06/29 08:46:04;;;;;;;7.10;6.60;;;24.10;97.20;;;;;;1725815;28;20196;-71
2022/06/29 08:46:55;;;;;;;7.22;6.60;;;24.10;97.20;;;;;;1725561;28;20575;-73
2022/06/29 08:47:46;;;;;;;5.93;5.50;;;24.00;97.20;;;;;;1725542;28;20279;-71
2022/06/29 08:48:37;;;;;;;7.35;6.65;;;24.00;97.20;;;;;;1725809;28;20204;-71
2022/06/29 08:49:29;;;;;;;7.27;6.60;;;24.00;97.20;;;;;;1725635;28;20205;-73
2022/06/29 08:50:20;;;;;;;7.05;6.40;;;24.00;97.20;;;;;;1725943;28;20208;-71
2022/06/29 08:51:14;;;;;;;8.03;6.63;;;24.00;97.20;;;;;;1725952;28;20284;-72
2022/06/29 08:52:07;;;;;;;7.60;6.57;;;24.00;97.20;;;;;;1725526;28;20451;-72
2022/06/29 08:53:03;;;;;;;6.88;6.38;;;24.00;97.20;;;;;;1725641;28;20196;-72
2022/06/29 08:53:53;;;;;;;6.90;6.40;;;24.00;97.20;;;;;;1725473;28;20211;-71
2022/06/29 08:54:48;;;;;;;7.23;6.70;;;24.00;97.20;;;;;;1726034;28;20231;-70
2022/06/29 08:55:42;;;;;;;7.10;6.43;;;23.90;97.20;;;;;;1724204;28;20652;-71
2022/06/29 08:56:35;;;;;;;7.68;7.15;;;23.90;97.20;;;;;;1725348;28;20953;-71
2022/06/29 08:57:26;;;;;;;6.90;6.32;;;23.90;97.20;;;;;;1725209;28;20197;-71
2022/06/29 08:58:21;;;;;;;8.10;6.80;;;23.90;97.20;;;;;;1725606;28;20284;-71
2022/06/29 08:59:13;;;;;;;7.35;6.65;;;23.90;97.20;;;;;;1725329;28;20460;-71
2022/06/29 09:00:06;;;;;;;8.18;7.35;;;23.90;97.20;;;;;;1725506;28;20287;-71
2022/06/29 09:00:56;;;;;;;7.60;7.03;;;23.90;97.20;;;;;;1725673;28;20239;-71
2022/06/29 09:01:49;;;;;;;7.20;6.60;;;23.90;97.20;;;;;;1726070;28;20311;-71
2022/06/29 09:02:40;;;;;;;7.75;7.10;;;23.90;97.20;;;;;;1725516;28;20363;-71
2022/06/29 09:03:32;;;;;;;7.25;6.70;;;23.90;97.20;;;;;;1725868;28;20400;-70
2022/06/29 09:04:23;;;;;;;7.20;6.70;;;23.90;97.20;;;;;;1725494;28;20204;-70
2022/06/29 09:05:14;;;;;;;7.07;6.57;;;24.00;97.20;;;;;;1725585;28;20288;-72
2022/06/29 09:06:06;;;;;;;7.28;6.78;;;24.00;97.20;;;;;;1725426;28;20207;-72
2022/06/29 09:06:58;;;;;;;7.85;7.15;;;24.00;97.20;;;;;;1725168;28;20243;-72
2022/06/29 09:07:49;;;;;;;7.10;6.50;;;24.00;97.20;;;;;;1725428;28;20247;-70
2022/06/29 09:08:42;;;;;;;6.97;6.47;;;24.10;97.20;;;;;;1726211;28;20199;-71
2022/06/29 09:09:56;;;;;;;7.43;6.82;;;24.10;97.20;;;;;;1725345;28;20208;-71
2022/06/29 09:10:48;;;;;;;6.28;5.80;;;24.20;97.20;;;;;;1725334;28;20208;-71
2022/06/29 09:11:42;;;;;;;6.10;5.70;;;24.20;97.20;;;;;;1725673;28;20589;-71
2022/06/29 09:12:34;;;;;;;8.40;7.07;;;24.30;97.20;;;;;;1725321;28;20251;-71
2022/06/29 09:13:25;;;;;;;6.75;6.15;;;24.30;97.20;;;;;;1725424;28;20929;-71
2022/06/29 09:14:18;;;;;;;7.37;6.73;;;24.40;97.20;;;;;;1725527;28;20566;-71
2022/06/29 09:15:10;;;;;;;7.97;7.03;;;24.40;97.20;;;;;;1726481;28;20680;-71
2022/06/29 09:16:02;;;;;;;7.35;6.75;;;24.50;97.20;;;;;;1725402;28;20720;-71
2022/06/29 09:16:58;;;;;;;7.93;7.22;;;24.60;97.20;;;;;;1725020;28;20274;-72
2022/06/29 09:17:50;;;;;;;8.80;7.50;;;24.60;97.20;;;;;;1725569;28;21916;-71
2022/06/29 09:18:43;;;;;;;7.70;7.00;;;24.60;97.20;;;;;;1725561;28;20211;-72
2022/06/29 09:19:44;;;;;;;8.73;8.13;;;24.70;97.20;;;;;;1725285;28;20544;-72
2022/06/29 09:20:40;;;;;;;7.47;6.88;;;24.70;97.20;;;;;;1725180;28;20225;-71
2022/06/29 09:21:43;;;;;;;8.75;6.25;;;24.80;97.20;;;;;;1725921;28;20196;-72
2022/06/29 09:22:41;;;;;;;8.07;7.32;;;24.80;97.20;;;;;;1725556;28;20205;-72
2022/06/29 09:23:34;;;;;;;7.28;6.65;;;24.80;97.20;;;;;;1725761;28;20197;-72
2022/06/29 09:24:29;;;;;;;6.30;5.85;;;24.80;97.20;;;;;;1725519;28;20200;-72
2022/06/29 09:25:21;;;;;;;7.22;6.63;;;24.90;97.20;;;;;;1725281;28;20209;-73
2022/06/29 09:26:13;;;;;;;8.43;7.57;;;24.90;97.20;;;;;;1725332;28;20812;-72
2022/06/29 09:27:05;;;;;;;7.20;6.50;;;25.00;97.20;;;;;;1725131;28;20228;-72
2022/06/29 09:27:58;;;;;;;7.05;6.55;;;25.00;97.20;;;;;;1725963;28;20207;-71
2022/06/29 09:28:51;;;;;;;8.02;6.97;;;25.00;97.20;;;;;;1725284;28;20259;-71
2022/06/29 09:29:44;;;;;;;7.30;6.60;;;25.10;97.20;;;;;;1725394;28;20615;-71
2022/06/29 09:30:37;;;;;;;6.00;5.50;;;25.10;97.20;;;;;;1725345;28;20665;-71
2022/06/29 09:31:28;;;;;;;7.97;7.18;;;25.10;97.20;;;;;;1725658;28;20250;-70